createdAt,value
2023-05-15T00:00:06.646Z,4.90
2023-05-15T00:02:34.812Z,4.80
2023-05-15T00:05:02.231Z,4.78
2023-05-15T00:07:29.640Z,4.88
2023-05-15T00:09:56.918Z,4.72
2023-05-15T00:12:24.154Z,5.00
2023-05-15T00:14:51.456Z,5.03
2023-05-15T00:17:18.778Z,5.18
2023-05-15T00:19:46.436Z,5.32
2023-05-15T00:22:13.753Z,5.13
2023-05-15T00:24:41.034Z,4.80
2023-05-15T00:27:08.414Z,5.13
2023-05-15T00:29:35.734Z,5.05
2023-05-15T00:32:03.058Z,5.68
2023-05-15T00:34:30.324Z,5.30
2023-05-15T00:36:57.645Z,5.35
2023-05-15T00:39:24.930Z,5.60
2023-05-15T00:41:53.506Z,5.45
2023-05-15T00:44:21.926Z,5.30
2023-05-15T00:46:51.899Z,5.65
2023-05-15T00:49:21.856Z,5.80
2023-05-15T00:51:50.137Z,5.50
2023-05-15T00:54:17.463Z,5.32
2023-05-15T00:56:46.594Z,5.65
2023-05-15T00:59:14.202Z,5.53
2023-05-15T01:01:41.540Z,5.60
2023-05-15T01:04:08.800Z,5.97
2023-05-15T01:06:36.362Z,5.80
2023-05-15T01:09:06.666Z,5.35
2023-05-15T01:11:38.217Z,6.07
2023-05-15T01:14:07.429Z,5.75
2023-05-15T01:16:35.954Z,5.97
2023-05-15T01:19:04.401Z,6.05
2023-05-15T01:21:34.975Z,6.03
2023-05-15T01:24:16.363Z,5.90
2023-05-15T01:26:49.388Z,6.32
2023-05-15T01:29:28.715Z,6.03
2023-05-15T01:32:02.546Z,6.18
2023-05-15T01:34:44.300Z,6.72
2023-05-15T01:37:14.545Z,6.43
2023-05-15T01:39:45.529Z,6.22
2023-05-15T01:42:16.925Z,6.28
2023-05-15T01:44:52.122Z,6.35
2023-05-15T01:47:24.867Z,6.13
2023-05-15T01:49:55.953Z,5.93
2023-05-15T01:52:40.697Z,6.53
2023-05-15T01:55:09.726Z,6.53
2023-05-15T01:57:38.402Z,6.10
2023-05-15T02:00:06.991Z,6.45
2023-05-15T02:02:34.913Z,6.50
2023-05-15T02:05:02.795Z,5.63
2023-05-15T02:07:31.478Z,6.38
2023-05-15T02:10:00.645Z,6.22
2023-05-15T02:12:28.690Z,6.38
2023-05-15T02:14:57.839Z,6.20
2023-05-15T02:17:25.533Z,6.07
2023-05-15T02:19:52.848Z,6.32
2023-05-15T02:22:20.157Z,6.18
2023-05-15T02:24:47.524Z,6.22
2023-05-15T02:27:27.744Z,6.22
2023-05-15T02:30:00.040Z,6.20
2023-05-15T02:32:38.611Z,6.13
2023-05-15T02:35:14.550Z,6.07
2023-05-15T02:37:46.430Z,6.28
2023-05-15T02:40:16.220Z,6.43
2023-05-15T02:42:46.590Z,6.05
2023-05-15T02:45:14.201Z,5.88
2023-05-15T02:47:42.493Z,6.30
2023-05-15T02:50:10.702Z,5.72
2023-05-15T02:52:38.195Z,6.30
2023-05-15T02:55:06.401Z,5.97
2023-05-15T02:57:34.064Z,6.18
2023-05-15T03:00:01.765Z,6.28
2023-05-15T03:02:29.121Z,6.28
2023-05-15T03:04:56.468Z,6.20
2023-05-15T03:07:23.679Z,6.35
2023-05-15T03:09:50.949Z,6.38
2023-05-15T03:12:18.285Z,6.22
2023-05-15T03:14:45.634Z,6.55
2023-05-15T03:17:12.980Z,6.78
2023-05-15T03:19:41.065Z,6.55
2023-05-15T03:22:08.348Z,6.90
2023-05-15T03:24:35.752Z,6.22
2023-05-15T03:27:03.176Z,6.22
2023-05-15T03:29:30.621Z,6.57
2023-05-15T03:31:57.961Z,6.63
2023-05-15T03:34:25.240Z,6.68
2023-05-15T03:36:52.576Z,6.80
2023-05-15T03:39:19.855Z,6.70
2023-05-15T03:41:47.543Z,6.35
2023-05-15T03:44:14.849Z,6.07
2023-05-15T03:46:42.305Z,6.30
2023-05-15T03:49:09.647Z,6.43
2023-05-15T03:51:37.029Z,6.88
2023-05-15T03:54:05.718Z,6.55
2023-05-15T03:56:33.469Z,6.55
2023-05-15T03:59:00.756Z,5.88
2023-05-15T04:01:28.071Z,6.57
2023-05-15T04:03:55.496Z,6.88
2023-05-15T04:06:22.943Z,6.18
2023-05-15T04:08:50.633Z,6.38
2023-05-15T04:11:18.293Z,6.00
2023-05-15T04:13:45.588Z,6.60
2023-05-15T04:16:12.898Z,6.72
2023-05-15T04:18:40.414Z,5.90
2023-05-15T04:21:07.691Z,6.57
2023-05-15T04:23:35.049Z,6.22
2023-05-15T04:26:02.586Z,5.97
2023-05-15T04:28:30.521Z,5.72
2023-05-15T04:30:59.200Z,6.28
2023-05-15T04:33:26.552Z,6.60
2023-05-15T04:35:53.905Z,6.20
2023-05-15T04:38:21.534Z,6.55
2023-05-15T04:40:49.441Z,6.72
2023-05-15T04:43:16.864Z,6.85
2023-05-15T04:45:44.209Z,6.40
2023-05-15T04:48:11.530Z,6.57
2023-05-15T04:50:38.822Z,6.60
2023-05-15T04:53:06.547Z,6.68
2023-05-15T04:55:33.920Z,6.60
2023-05-15T04:58:01.287Z,7.25
2023-05-15T05:00:29.517Z,6.90
2023-05-15T05:02:56.957Z,6.78
2023-05-15T05:05:24.637Z,7.07
2023-05-15T05:07:52.140Z,7.13
2023-05-15T05:10:19.472Z,7.50
2023-05-15T05:12:46.815Z,7.03
2023-05-15T05:15:14.290Z,7.57
2023-05-15T05:17:41.636Z,7.38
2023-05-15T05:20:12.432Z,7.65
2023-05-15T05:22:40.893Z,7.40
2023-05-15T05:25:08.532Z,7.38
2023-05-15T05:27:35.758Z,7.53
2023-05-15T05:30:03.396Z,8.05
2023-05-15T05:32:30.734Z,7.90
2023-05-15T05:34:58.019Z,7.82
2023-05-15T05:37:25.954Z,7.93
2023-05-15T05:39:53.305Z,7.65
2023-05-15T05:42:20.565Z,8.43
2023-05-15T05:44:47.837Z,8.45
2023-05-15T05:47:15.436Z,8.15
2023-05-15T05:49:42.832Z,7.47
2023-05-15T05:52:10.214Z,8.20
2023-05-15T05:54:37.586Z,8.23
2023-05-15T05:57:05.118Z,8.38
2023-05-15T05:59:32.421Z,8.55
2023-05-15T06:01:59.704Z,8.43
2023-05-15T06:04:27.453Z,7.93
2023-05-15T06:06:54.854Z,8.68
2023-05-15T06:09:22.154Z,8.45
2023-05-15T06:11:49.449Z,8.50
2023-05-15T06:14:16.744Z,8.60
2023-05-15T06:16:44.067Z,8.57
2023-05-15T06:19:11.466Z,9.90
2023-05-15T06:21:38.787Z,9.48
2023-05-15T06:24:06.366Z,9.20
2023-05-15T06:26:33.635Z,9.65
2023-05-15T06:29:00.969Z,10.02
2023-05-15T06:31:28.348Z,9.27
2023-05-15T06:33:55.686Z,9.50
2023-05-15T06:36:23.097Z,9.32
2023-05-15T06:38:50.483Z,9.70
2023-05-15T06:41:17.763Z,9.68
2023-05-15T06:43:45.043Z,9.88
2023-05-15T06:46:12.448Z,10.13
2023-05-15T06:48:39.732Z,10.13
2023-05-15T06:51:07.102Z,10.20
2023-05-15T06:53:34.407Z,10.57
2023-05-15T06:56:01.685Z,10.77
2023-05-15T06:58:28.943Z,10.88
2023-05-15T07:00:56.681Z,10.88
2023-05-15T07:03:24.973Z,10.57
2023-05-15T07:05:53.221Z,10.73
2023-05-15T07:08:20.706Z,11.20
2023-05-15T07:10:48.516Z,11.07
2023-05-15T07:13:19.900Z,11.43
2023-05-15T07:15:47.316Z,10.98
2023-05-15T07:18:14.745Z,12.00
2023-05-15T07:20:42.140Z,11.25
2023-05-15T07:23:09.473Z,11.80
2023-05-15T07:25:36.970Z,11.65
2023-05-15T07:28:04.385Z,10.73
2023-05-15T07:30:31.738Z,11.77
2023-05-15T07:32:59.118Z,11.68
2023-05-15T07:35:27.039Z,12.00
2023-05-15T07:37:54.684Z,12.35
2023-05-15T07:40:22.067Z,13.05
2023-05-15T07:42:49.402Z,12.60
2023-05-15T07:45:16.851Z,12.38
2023-05-15T07:47:47.214Z,12.45
2023-05-15T07:50:14.791Z,11.98
2023-05-15T07:52:43.132Z,13.18
2023-05-15T07:55:11.010Z,12.57
2023-05-15T07:57:39.763Z,13.07
2023-05-15T08:00:13.525Z,13.30
2023-05-15T08:02:41.679Z,13.30
2023-05-15T08:05:09.199Z,14.13
2023-05-15T08:07:36.583Z,14.00
2023-05-15T08:10:06.279Z,14.27
2023-05-15T08:12:34.105Z,13.43
2023-05-15T08:15:01.614Z,13.88
2023-05-15T08:17:28.976Z,14.80
2023-05-15T08:19:56.446Z,14.25
2023-05-15T08:22:23.757Z,13.93
2023-05-15T08:24:50.988Z,14.60
2023-05-15T08:27:18.251Z,14.52
2023-05-15T08:29:45.981Z,14.77
2023-05-15T08:32:13.399Z,14.88
2023-05-15T08:34:40.620Z,14.88
2023-05-15T08:37:07.908Z,15.25
2023-05-15T08:39:35.317Z,15.43
2023-05-15T08:42:14.688Z,15.50
2023-05-15T08:44:42.320Z,14.35
2023-05-15T08:47:10.011Z,16.00
2023-05-15T08:50:03.887Z,15.35
2023-05-15T08:52:32.452Z,15.23
2023-05-15T08:55:01.134Z,15.30
2023-05-15T08:57:29.034Z,16.17
2023-05-15T08:59:56.883Z,15.40
2023-05-15T09:02:26.199Z,15.35
2023-05-15T09:04:53.571Z,15.25
2023-05-15T09:07:21.331Z,14.90
2023-05-15T09:09:48.826Z,15.45
2023-05-15T09:12:17.082Z,15.52
2023-05-15T09:14:44.723Z,16.33
2023-05-15T09:17:13.044Z,15.52
2023-05-15T09:19:41.586Z,15.20
2023-05-15T09:22:23.079Z,15.20
2023-05-15T09:24:53.136Z,14.07
2023-05-15T09:27:21.115Z,14.20
2023-05-15T09:29:51.541Z,13.70
2023-05-15T09:32:19.689Z,13.00
2023-05-15T09:34:47.062Z,13.35
2023-05-15T09:37:32.856Z,13.00
2023-05-15T09:40:11.197Z,12.70
2023-05-15T09:42:38.936Z,12.52
2023-05-15T09:45:06.939Z,12.25
2023-05-15T09:47:34.828Z,12.68
2023-05-15T09:50:02.340Z,12.63
2023-05-15T09:52:30.229Z,13.07
2023-05-15T09:54:58.146Z,13.52
2023-05-15T09:57:25.540Z,13.15
2023-05-15T09:59:52.869Z,12.23
2023-05-15T10:02:35.328Z,11.55
2023-05-15T10:05:02.900Z,11.77
2023-05-15T10:07:31.467Z,11.18
2023-05-15T10:09:59.842Z,10.88
2023-05-15T10:12:28.282Z,10.15
2023-05-15T10:15:00.830Z,9.70
2023-05-15T10:17:34.543Z,9.30
2023-05-15T10:20:07.042Z,8.17
2023-05-15T10:22:38.533Z,8.45
2023-05-15T10:25:41.199Z,7.97
2023-05-15T10:28:12.570Z,7.43
2023-05-15T10:30:40.308Z,6.90
2023-05-15T10:33:08.506Z,6.60
2023-05-15T10:35:38.082Z,6.00
2023-05-15T10:38:06.951Z,6.68
2023-05-15T10:40:38.130Z,6.43
2023-05-15T10:43:06.505Z,5.75
2023-05-15T10:45:35.359Z,5.60
2023-05-15T10:48:05.560Z,5.22
2023-05-15T10:50:33.235Z,5.55
2023-05-15T10:53:01.222Z,5.75
2023-05-15T10:55:30.638Z,5.40
2023-05-15T10:57:58.097Z,5.70
2023-05-15T11:00:31.289Z,5.72
2023-05-15T11:02:59.325Z,6.25
2023-05-15T11:05:27.134Z,5.80
2023-05-15T11:08:25.948Z,5.70
2023-05-15T11:10:54.482Z,5.15
2023-05-15T11:13:21.871Z,4.90
2023-05-15T11:15:49.890Z,5.03
2023-05-15T11:18:17.591Z,4.70
2023-05-15T11:20:51.999Z,4.80
2023-05-15T11:23:23.059Z,4.93
2023-05-15T11:25:55.853Z,4.82
2023-05-15T11:28:25.290Z,4.55
2023-05-15T11:30:59.156Z,4.43
2023-05-15T11:33:33.164Z,4.90
2023-05-15T11:36:01.662Z,4.68
2023-05-15T11:38:36.652Z,4.57
2023-05-15T11:41:16.176Z,4.13
2023-05-15T11:43:43.706Z,4.10
2023-05-15T11:46:13.728Z,4.18
2023-05-15T11:48:49.415Z,4.90
2023-05-15T11:51:24.861Z,4.57
2023-05-15T11:53:54.238Z,5.05
2023-05-15T11:56:24.355Z,4.00
2023-05-15T11:58:55.344Z,3.78
2023-05-15T12:01:22.741Z,4.28
2023-05-15T12:03:51.652Z,4.20
2023-05-15T12:06:19.462Z,3.50
2023-05-15T12:08:54.482Z,3.97
2023-05-15T12:11:25.598Z,3.55
2023-05-15T12:13:54.821Z,2.92
2023-05-15T12:16:28.462Z,3.25
2023-05-15T12:18:58.095Z,3.20
2023-05-15T12:21:27.907Z,2.92
2023-05-15T12:26:29.134Z,2.72
2023-05-15T12:28:57.077Z,2.60
2023-05-15T12:31:24.637Z,3.17
2023-05-15T12:33:52.136Z,2.33
2023-05-15T12:36:21.946Z,2.92
2023-05-15T12:38:49.675Z,2.50
2023-05-15T12:41:17.062Z,2.80
2023-05-15T12:43:44.364Z,2.67
2023-05-15T12:46:15.335Z,2.80
2023-05-15T12:48:42.762Z,2.60
2023-05-15T12:51:10.392Z,2.30
2023-05-15T12:53:39.808Z,2.67
2023-05-15T12:56:09.040Z,2.95
2023-05-15T12:58:38.699Z,3.17
2023-05-15T13:01:06.221Z,2.88
2023-05-15T13:03:34.418Z,2.80
2023-05-15T13:06:03.624Z,3.28
2023-05-15T13:08:31.493Z,2.78
2023-05-15T13:11:00.212Z,2.90
2023-05-15T13:13:46.748Z,2.97
2023-05-15T13:16:29.465Z,2.42
2023-05-15T13:18:58.996Z,2.70
2023-05-15T13:21:26.356Z,2.45
2023-05-15T13:23:53.659Z,2.50
2023-05-15T13:26:21.021Z,2.95
2023-05-15T13:28:48.289Z,2.58
2023-05-15T13:31:15.690Z,2.15
2023-05-15T13:33:43.134Z,2.20
2023-05-15T13:36:10.562Z,2.45
2023-05-15T13:38:37.873Z,2.20
2023-05-15T13:41:05.618Z,2.15
2023-05-15T13:43:32.963Z,2.03
2023-05-15T13:46:00.306Z,2.53
2023-05-15T13:48:27.613Z,2.05
2023-05-15T13:50:54.921Z,2.28
2023-05-15T13:53:22.239Z,2.03
2023-05-15T13:55:49.559Z,2.38
2023-05-15T13:58:16.937Z,1.90
2023-05-15T14:00:45.316Z,2.40
2023-05-15T14:03:14.914Z,2.08
2023-05-15T14:05:42.530Z,2.10
2023-05-15T14:08:09.913Z,2.13
2023-05-15T14:10:37.732Z,2.22
2023-05-15T14:13:05.228Z,2.08
2023-05-15T14:15:32.570Z,1.95
2023-05-15T14:17:59.940Z,1.90
2023-05-15T14:20:27.451Z,1.60
2023-05-15T14:22:54.965Z,1.90
2023-05-15T14:25:22.348Z,1.88
2023-05-15T14:27:49.717Z,2.00
2023-05-15T14:30:16.996Z,2.08
2023-05-15T14:32:44.334Z,1.90
2023-05-15T14:35:11.625Z,1.35
2023-05-15T14:37:39.037Z,1.80
2023-05-15T14:40:08.105Z,1.90
2023-05-15T14:42:35.517Z,1.88
2023-05-15T14:45:02.941Z,1.90
2023-05-15T14:47:30.510Z,2.08
2023-05-15T14:49:57.789Z,1.60
2023-05-15T14:52:25.111Z,1.80
2023-05-15T14:55:04.756Z,1.92
2023-05-15T14:57:36.693Z,1.90
2023-05-15T15:00:06.247Z,1.83
2023-05-15T15:02:34.055Z,1.60
2023-05-15T15:05:01.620Z,2.00
2023-05-15T15:07:32.799Z,1.90
2023-05-15T15:10:00.171Z,1.75
2023-05-15T15:12:27.635Z,1.65
2023-05-15T15:14:54.997Z,1.48
2023-05-15T15:17:22.738Z,1.88
2023-05-15T15:19:50.007Z,2.05
2023-05-15T15:22:17.275Z,1.48
2023-05-15T15:24:44.592Z,1.55
2023-05-15T15:27:11.897Z,1.92
2023-05-15T15:29:39.191Z,1.60
2023-05-15T15:32:06.960Z,1.77
2023-05-15T15:34:34.395Z,1.90
2023-05-15T15:37:01.642Z,1.92
2023-05-15T15:39:28.899Z,1.55
2023-05-15T15:41:56.439Z,1.90
2023-05-15T15:44:24.371Z,1.80
2023-05-15T15:46:51.610Z,1.90
2023-05-15T15:49:18.942Z,1.77
2023-05-15T15:51:46.279Z,1.80
2023-05-15T15:54:13.602Z,1.50
2023-05-15T15:56:42.841Z,1.92
2023-05-15T15:59:10.245Z,2.08
2023-05-15T16:01:37.718Z,1.75
2023-05-15T16:04:05.229Z,1.55
2023-05-15T16:06:33.813Z,1.60
2023-05-15T16:09:01.508Z,2.22
2023-05-15T16:11:29.654Z,1.70
2023-05-15T16:13:56.977Z,1.65
2023-05-15T16:16:24.335Z,2.08
2023-05-15T16:18:51.998Z,1.90
2023-05-15T16:21:19.585Z,2.05
2023-05-15T16:23:46.877Z,1.58
2023-05-15T16:26:14.204Z,1.70
2023-05-15T16:28:41.487Z,2.10
2023-05-15T16:31:09.529Z,1.88
2023-05-15T16:33:36.916Z,1.92
2023-05-15T16:36:05.277Z,2.00
2023-05-15T16:38:32.741Z,1.83
2023-05-15T16:41:00.008Z,1.77
2023-05-15T16:43:27.351Z,2.08
2023-05-15T16:45:55.193Z,1.70
2023-05-15T16:48:22.971Z,1.80
2023-05-15T16:50:50.524Z,2.10
2023-05-15T16:53:18.801Z,1.67
2023-05-15T16:55:49.303Z,2.05
2023-05-15T16:58:17.196Z,2.00
2023-05-15T17:00:44.446Z,1.75
2023-05-15T17:03:12.826Z,2.00
2023-05-15T17:05:40.634Z,1.60
2023-05-15T17:08:07.919Z,1.95
2023-05-15T17:10:35.198Z,1.73
2023-05-15T17:13:02.486Z,2.10
2023-05-15T17:15:29.982Z,1.70
2023-05-15T17:17:57.319Z,1.70
2023-05-15T17:20:24.941Z,1.73
2023-05-15T17:22:52.351Z,1.70
2023-05-15T17:25:19.669Z,1.80
2023-05-15T17:27:47.004Z,1.95
2023-05-15T17:30:14.473Z,2.10
2023-05-15T17:32:41.915Z,2.00
2023-05-15T17:35:10.249Z,2.45
2023-05-15T17:37:38.042Z,2.40
2023-05-15T17:40:05.818Z,2.08
2023-05-15T17:42:33.348Z,2.25
2023-05-15T17:45:00.752Z,2.15
2023-05-15T17:47:27.996Z,1.45
2023-05-15T17:49:55.580Z,1.98
2023-05-15T17:52:22.953Z,2.00
2023-05-15T17:54:50.237Z,1.85
2023-05-15T17:57:17.701Z,2.28
2023-05-15T17:59:44.998Z,1.73
2023-05-15T18:02:12.294Z,2.00
2023-05-15T18:04:39.784Z,2.28
2023-05-15T18:07:07.018Z,2.00
2023-05-15T18:09:34.356Z,2.00
2023-05-15T18:12:01.785Z,1.90
2023-05-15T18:14:29.137Z,2.08
2023-05-15T18:16:57.444Z,1.95
2023-05-15T18:19:24.802Z,2.03
2023-05-15T18:21:52.720Z,2.20
2023-05-15T18:24:20.073Z,1.95
2023-05-15T18:26:47.447Z,2.20
2023-05-15T18:29:14.771Z,2.10
2023-05-15T18:31:42.061Z,1.92
2023-05-15T18:34:09.365Z,2.15
2023-05-15T18:36:36.687Z,2.05
2023-05-15T18:39:04.034Z,1.83
2023-05-15T18:41:31.362Z,2.20
2023-05-15T18:43:58.699Z,1.92
2023-05-15T18:46:28.424Z,2.15
2023-05-15T18:48:55.910Z,2.33
2023-05-15T18:51:24.172Z,1.90
2023-05-15T18:53:51.869Z,2.03
2023-05-15T18:56:19.203Z,2.13
2023-05-15T18:58:47.480Z,1.90
2023-05-15T19:01:14.821Z,2.20
2023-05-15T19:03:42.277Z,1.90
2023-05-15T19:06:09.609Z,2.05
2023-05-15T19:08:36.846Z,1.83
2023-05-15T19:11:04.140Z,2.13
2023-05-15T19:13:32.914Z,2.40
2023-05-15T19:16:00.195Z,1.90
2023-05-15T19:18:27.521Z,2.10
2023-05-15T19:20:56.680Z,1.98
2023-05-15T19:23:24.579Z,2.63
2023-05-15T19:25:52.092Z,2.53
2023-05-15T19:28:19.714Z,1.92
2023-05-15T19:30:47.053Z,1.88
2023-05-15T19:33:17.954Z,1.80
2023-05-15T19:35:45.324Z,2.22
2023-05-15T19:38:12.963Z,2.10
2023-05-15T19:40:45.105Z,2.42
2023-05-15T19:43:14.146Z,2.80
2023-05-15T19:45:42.354Z,2.17
2023-05-15T19:48:10.167Z,1.80
2023-05-15T19:50:39.555Z,2.28
2023-05-15T19:53:06.966Z,2.20
2023-05-15T19:55:34.339Z,2.08
2023-05-15T19:58:01.637Z,2.00
2023-05-15T20:00:28.986Z,2.03
2023-05-15T20:02:56.596Z,2.33
2023-05-15T20:05:24.057Z,2.53
2023-05-15T20:07:52.979Z,2.47
2023-05-15T20:10:20.550Z,2.13
2023-05-15T20:12:47.943Z,2.45
2023-05-15T20:15:16.027Z,2.10
2023-05-15T20:17:44.017Z,2.55
2023-05-15T20:20:12.139Z,2.13
2023-05-15T20:22:41.494Z,2.20
2023-05-15T20:25:09.439Z,2.50
2023-05-15T20:27:36.877Z,2.22
2023-05-15T20:30:05.734Z,1.95
2023-05-15T20:32:33.292Z,2.03
2023-05-15T20:35:01.565Z,2.20
2023-05-15T20:37:29.041Z,2.08
2023-05-15T20:39:57.445Z,1.90
2023-05-15T20:42:27.201Z,1.67
2023-05-15T20:44:54.476Z,2.17
2023-05-15T20:47:21.800Z,1.95
2023-05-15T20:49:49.399Z,2.15
2023-05-15T20:52:16.674Z,2.10
2023-05-15T20:54:43.990Z,2.17
2023-05-15T20:57:11.305Z,2.25
2023-05-15T20:59:38.581Z,2.13
2023-05-15T21:02:06.009Z,2.10
2023-05-15T21:04:33.570Z,2.03
2023-05-15T21:07:00.911Z,2.13
2023-05-15T21:09:28.187Z,1.90
2023-05-15T21:11:55.474Z,2.25
2023-05-15T21:14:22.799Z,2.08
2023-05-15T21:16:50.181Z,1.70
2023-05-15T21:19:17.633Z,2.08
2023-05-15T21:21:44.989Z,2.10
2023-05-15T21:24:12.262Z,2.13
2023-05-15T21:26:39.524Z,1.80
2023-05-15T21:29:07.057Z,2.10
2023-05-15T21:31:34.405Z,2.17
2023-05-15T21:34:01.688Z,1.92
2023-05-15T21:36:28.966Z,2.47
2023-05-15T21:38:56.254Z,1.73
2023-05-15T21:41:23.500Z,1.90
2023-05-15T21:43:50.780Z,2.28
2023-05-15T21:46:18.073Z,2.00
2023-05-15T21:48:46.552Z,2.35
2023-05-15T21:51:13.921Z,1.85
2023-05-15T21:53:41.213Z,2.10
2023-05-15T21:56:08.869Z,1.90
2023-05-15T21:58:36.154Z,2.53
2023-05-15T22:01:03.438Z,2.50
2023-05-15T22:03:31.093Z,1.95
2023-05-15T22:05:58.579Z,2.10
2023-05-15T22:08:25.840Z,2.25
2023-05-15T22:10:53.938Z,2.47
2023-05-15T22:13:21.311Z,2.10
2023-05-15T22:15:48.590Z,2.58
2023-05-15T22:18:15.897Z,2.00
2023-05-15T22:20:45.061Z,2.20
2023-05-15T22:23:12.394Z,2.40
2023-05-15T22:25:39.954Z,2.17
2023-05-15T22:28:07.313Z,2.08
2023-05-15T22:30:34.636Z,2.17
2023-05-15T22:33:01.998Z,2.13
2023-05-15T22:35:29.536Z,2.50
2023-05-15T22:37:57.122Z,2.00
2023-05-15T22:40:26.326Z,2.05
2023-05-15T22:42:53.859Z,2.17
2023-05-15T22:45:21.149Z,2.50
2023-05-15T22:47:49.205Z,2.20
2023-05-15T22:50:16.630Z,2.00
2023-05-15T22:52:43.953Z,2.20
2023-05-15T22:55:12.886Z,2.20
2023-05-15T22:57:40.382Z,2.30
2023-05-15T23:00:08.156Z,2.45
2023-05-15T23:02:38.762Z,2.10
2023-05-15T23:05:06.627Z,2.03
2023-05-15T23:07:33.986Z,2.17
2023-05-15T23:10:01.316Z,2.28
2023-05-15T23:12:28.953Z,2.00
2023-05-15T23:14:56.220Z,2.08
2023-05-15T23:17:25.732Z,2.58
2023-05-15T23:19:53.724Z,2.30
2023-05-15T23:22:21.198Z,2.60
2023-05-15T23:24:48.768Z,2.15
2023-05-15T23:27:16.067Z,2.10
2023-05-15T23:29:43.377Z,2.10
2023-05-15T23:32:10.657Z,2.17
2023-05-15T23:34:38.063Z,2.05
2023-05-15T23:37:05.646Z,2.55
2023-05-15T23:39:32.928Z,2.30
2023-05-15T23:42:00.274Z,2.38
2023-05-15T23:44:27.541Z,2.20
2023-05-15T23:46:54.794Z,2.38
2023-05-15T23:49:22.147Z,2.00
2023-05-15T23:51:49.365Z,2.28
2023-05-15T23:54:16.661Z,2.42
2023-05-15T23:56:43.961Z,2.38
2023-05-15T23:59:11.251Z,2.42
